sensor_id;sensor_type;location;lat;lon;timestamp;temperature;humidity
11812;DHT22;5963;50.184;9.162;2023-04-01T00:01:37;9.60;99.90
11812;DHT22;5963;50.184;9.162;2023-04-01T00:04:07;9.60;99.90
11812;DHT22;5963;50.184;9.162;2023-04-01T00:06:37;9.70;99.90
11812;DHT22;5963;50.184;9.162;2023-04-01T00:09:07;9.70;99.90
11812;DHT22;5963;50.184;9.162;2023-04-01T00:11:37;9.60;99.90
11812;DHT22;5963;50.184;9.162;2023-04-01T00:14:07;9.70;99.90
11812;DHT22;5963;50.184;9.162;2023-04-01T00:16:39;9.70;99.90
11812;DHT22;5963;50.184;9.162;2023-04-01T00:19:09;9.60;99.90
11812;DHT22;5963;50.184;9.162;2023-04-01T00:21:39;9.60;99.90
11812;DHT22;5963;50.184;9.162;2023-04-01T00:24:08;9.70;99.90
11812;DHT22;5963;50.184;9.162;2023-04-01T00:26:38;9.70;99.90
11812;DHT22;5963;50.184;9.162;2023-04-01T00:29:10;9.70;99.90
11812;DHT22;5963;50.184;9.162;2023-04-01T00:31:41;9.60;99.90
11812;DHT22;5963;50.184;9.162;2023-04-01T00:34:12;9.60;99.90
11812;DHT22;5963;50.184;9.162;2023-04-01T00:36:41;9.60;99.90
11812;DHT22;5963;50.184;9.162;2023-04-01T00:39:11;9.60;99.90
11812;DHT22;5963;50.184;9.162;2023-04-01T00:41:41;9.50;99.90
11812;DHT22;5963;50.184;9.162;2023-04-01T00:44:19;9.50;99.90
11812;DHT22;5963;50.184;9.162;2023-04-01T00:46:51;9.50;99.90
11812;DHT22;5963;50.184;9.162;2023-04-01T00:49:25;9.60;99.90
11812;DHT22;5963;50.184;9.162;2023-04-01T00:51:58;9.50;99.90
11812;DHT22;5963;50.184;9.162;2023-04-01T00:54:32;9.60;99.90
11812;DHT22;5963;50.184;9.162;2023-04-01T00:57:08;9.60;99.90
11812;DHT22;5963;50.184;9.162;2023-04-01T00:59:42;9.60;99.90
11812;DHT22;5963;50.184;9.162;2023-04-01T01:02:15;9.70;99.90
11812;DHT22;5963;50.184;9.162;2023-04-01T01:04:48;9.70;99.90
11812;DHT22;5963;50.184;9.162;2023-04-01T01:07:25;9.70;99.90
11812;DHT22;5963;50.184;9.162;2023-04-01T01:10:04;9.60;99.90
11812;DHT22;5963;50.184;9.162;2023-04-01T01:12:40;9.60;99.90
11812;DHT22;5963;50.184;9.162;2023-04-01T01:15:16;9.60;99.90
11812;DHT22;5963;50.184;9.162;2023-04-01T01:17:54;9.70;99.90
11812;DHT22;5963;50.184;9.162;2023-04-01T01:20:44;9.70;99.90
11812;DHT22;5963;50.184;9.162;2023-04-01T01:23:43;9.70;99.90
11812;DHT22;5963;50.184;9.162;2023-04-01T01:30:01;9.70;99.90
11812;DHT22;5963;50.184;9.162;2023-04-01T01:33:12;9.70;99.90
11812;DHT22;5963;50.184;9.162;2023-04-01T01:35:48;9.70;99.90
11812;DHT22;5963;50.184;9.162;2023-04-01T01:38:21;9.60;99.90
11812;DHT22;5963;50.184;9.162;2023-04-01T01:40:53;9.60;99.90
11812;DHT22;5963;50.184;9.162;2023-04-01T01:43:30;9.60;99.90
11812;DHT22;5963;50.184;9.162;2023-04-01T01:46:04;9.50;99.90
11812;DHT22;5963;50.184;9.162;2023-04-01T01:48:36;9.40;99.90
11812;DHT22;5963;50.184;9.162;2023-04-01T01:51:08;9.40;99.90
11812;DHT22;5963;50.184;9.162;2023-04-01T01:53:38;9.30;99.90
11812;DHT22;5963;50.184;9.162;2023-04-01T01:56:09;9.30;99.90
11812;DHT22;5963;50.184;9.162;2023-04-01T01:58:48;9.20;99.90
11812;DHT22;5963;50.184;9.162;2023-04-01T02:01:21;9.20;99.90
11812;DHT22;5963;50.184;9.162;2023-04-01T02:03:54;9.20;99.90
11812;DHT22;5963;50.184;9.162;2023-04-01T02:06:29;9.20;99.90
11812;DHT22;5963;50.184;9.162;2023-04-01T02:09:02;9.30;99.90
11812;DHT22;5963;50.184;9.162;2023-04-01T02:11:34;9.20;99.90
11812;DHT22;5963;50.184;9.162;2023-04-01T02:14:08;9.30;99.90
11812;DHT22;5963;50.184;9.162;2023-04-01T02:16:42;9.40;99.90
11812;DHT22;5963;50.184;9.162;2023-04-01T02:19:14;9.30;99.90
11812;DHT22;5963;50.184;9.162;2023-04-01T02:21:54;9.30;99.90
11812;DHT22;5963;50.184;9.162;2023-04-01T02:24:26;9.30;99.90
11812;DHT22;5963;50.184;9.162;2023-04-01T02:26:57;9.30;99.90
11812;DHT22;5963;50.184;9.162;2023-04-01T02:29:28;9.40;99.90
11812;DHT22;5963;50.184;9.162;2023-04-01T02:31:57;9.40;99.90
11812;DHT22;5963;50.184;9.162;2023-04-01T02:34:28;9.40;99.90
11812;DHT22;5963;50.184;9.162;2023-04-01T02:36:59;9.40;99.90
11812;DHT22;5963;50.184;9.162;2023-04-01T02:39:29;9.40;99.90
11812;DHT22;5963;50.184;9.162;2023-04-01T02:41:59;9.50;99.90
11812;DHT22;5963;50.184;9.162;2023-04-01T02:44:29;9.50;99.90
11812;DHT22;5963;50.184;9.162;2023-04-01T02:46:59;9.60;99.90
11812;DHT22;5963;50.184;9.162;2023-04-01T02:49:29;9.50;99.90
11812;DHT22;5963;50.184;9.162;2023-04-01T02:52:00;9.60;99.90
11812;DHT22;5963;50.184;9.162;2023-04-01T02:54:30;9.60;99.90
11812;DHT22;5963;50.184;9.162;2023-04-01T02:57:00;9.50;99.90
11812;DHT22;5963;50.184;9.162;2023-04-01T02:59:29;9.50;99.90
11812;DHT22;5963;50.184;9.162;2023-04-01T03:01:59;9.50;99.90
11812;DHT22;5963;50.184;9.162;2023-04-01T03:04:29;9.50;99.90
11812;DHT22;5963;50.184;9.162;2023-04-01T03:07:00;9.50;99.90
11812;DHT22;5963;50.184;9.162;2023-04-01T03:09:30;9.50;99.90
11812;DHT22;5963;50.184;9.162;2023-04-01T03:12:00;9.50;99.90
11812;DHT22;5963;50.184;9.162;2023-04-01T03:14:30;9.50;99.90
11812;DHT22;5963;50.184;9.162;2023-04-01T03:17:01;9.50;99.90
11812;DHT22;5963;50.184;9.162;2023-04-01T03:19:31;9.40;99.90
11812;DHT22;5963;50.184;9.162;2023-04-01T03:22:02;9.40;99.90
11812;DHT22;5963;50.184;9.162;2023-04-01T03:24:32;9.40;99.90
11812;DHT22;5963;50.184;9.162;2023-04-01T03:27:02;9.40;99.90
11812;DHT22;5963;50.184;9.162;2023-04-01T03:29:31;9.40;99.90
11812;DHT22;5963;50.184;9.162;2023-04-01T03:32:01;9.40;99.90
11812;DHT22;5963;50.184;9.162;2023-04-01T03:34:31;9.40;99.90
11812;DHT22;5963;50.184;9.162;2023-04-01T03:37:02;9.40;99.90
11812;DHT22;5963;50.184;9.162;2023-04-01T03:39:32;9.40;99.90
11812;DHT22;5963;50.184;9.162;2023-04-01T03:42:03;9.30;99.90
11812;DHT22;5963;50.184;9.162;2023-04-01T03:44:36;9.40;99.90
11812;DHT22;5963;50.184;9.162;2023-04-01T03:47:06;9.40;99.90
11812;DHT22;5963;50.184;9.162;2023-04-01T03:49:37;9.30;99.90
11812;DHT22;5963;50.184;9.162;2023-04-01T03:52:11;9.30;99.90
11812;DHT22;5963;50.184;9.162;2023-04-01T03:54:41;9.30;99.90
11812;DHT22;5963;50.184;9.162;2023-04-01T03:57:11;9.40;99.90
11812;DHT22;5963;50.184;9.162;2023-04-01T03:59:41;9.30;99.90
11812;DHT22;5963;50.184;9.162;2023-04-01T04:02:11;9.20;99.90
11812;DHT22;5963;50.184;9.162;2023-04-01T04:04:41;9.20;99.90
11812;DHT22;5963;50.184;9.162;2023-04-01T04:07:12;9.20;99.90
11812;DHT22;5963;50.184;9.162;2023-04-01T04:09:42;9.20;99.90
11812;DHT22;5963;50.184;9.162;2023-04-01T04:12:11;9.20;99.90
11812;DHT22;5963;50.184;9.162;2023-04-01T04:14:41;9.20;99.90
11812;DHT22;5963;50.184;9.162;2023-04-01T04:17:11;9.20;99.90
11812;DHT22;5963;50.184;9.162;2023-04-01T04:19:44;9.20;99.90
11812;DHT22;5963;50.184;9.162;2023-04-01T04:22:16;9.10;99.90
11812;DHT22;5963;50.184;9.162;2023-04-01T04:24:46;9.10;99.90
11812;DHT22;5963;50.184;9.162;2023-04-01T04:27:16;9.10;99.90
11812;DHT22;5963;50.184;9.162;2023-04-01T04:29:45;9.10;99.90
11812;DHT22;5963;50.184;9.162;2023-04-01T04:32:15;9.10;99.90
11812;DHT22;5963;50.184;9.162;2023-04-01T04:34:45;9.10;99.90
11812;DHT22;5963;50.184;9.162;2023-04-01T04:37:16;9.10;99.90
11812;DHT22;5963;50.184;9.162;2023-04-01T04:39:46;9.10;99.90
11812;DHT22;5963;50.184;9.162;2023-04-01T04:42:16;9.10;99.90
11812;DHT22;5963;50.184;9.162;2023-04-01T04:44:46;9.10;99.90
11812;DHT22;5963;50.184;9.162;2023-04-01T04:47:16;9.10;99.90
11812;DHT22;5963;50.184;9.162;2023-04-01T04:49:46;9.10;99.90
11812;DHT22;5963;50.184;9.162;2023-04-01T04:52:17;9.10;99.90
11812;DHT22;5963;50.184;9.162;2023-04-01T04:54:47;9.10;99.90
11812;DHT22;5963;50.184;9.162;2023-04-01T04:57:17;9.10;99.90
11812;DHT22;5963;50.184;9.162;2023-04-01T04:59:46;9.10;99.90
11812;DHT22;5963;50.184;9.162;2023-04-01T05:02:16;9.20;99.90
11812;DHT22;5963;50.184;9.162;2023-04-01T05:04:46;9.10;99.90
11812;DHT22;5963;50.184;9.162;2023-04-01T05:07:17;9.20;99.90
11812;DHT22;5963;50.184;9.162;2023-04-01T05:09:47;9.20;99.90
11812;DHT22;5963;50.184;9.162;2023-04-01T05:12:17;9.20;99.90
11812;DHT22;5963;50.184;9.162;2023-04-01T05:14:47;9.20;99.90
11812;DHT22;5963;50.184;9.162;2023-04-01T05:17:17;9.20;99.90
11812;DHT22;5963;50.184;9.162;2023-04-01T05:19:46;9.20;99.90
11812;DHT22;5963;50.184;9.162;2023-04-01T05:22:17;9.30;99.90
11812;DHT22;5963;50.184;9.162;2023-04-01T05:24:47;9.20;99.90
11812;DHT22;5963;50.184;9.162;2023-04-01T05:27:17;9.20;99.90
11812;DHT22;5963;50.184;9.162;2023-04-01T05:29:47;9.20;99.90
11812;DHT22;5963;50.184;9.162;2023-04-01T05:32:17;9.20;99.90
11812;DHT22;5963;50.184;9.162;2023-04-01T05:34:47;9.20;99.90
11812;DHT22;5963;50.184;9.162;2023-04-01T05:37:20;9.20;99.90
11812;DHT22;5963;50.184;9.162;2023-04-01T05:39:51;9.10;99.90
11812;DHT22;5963;50.184;9.162;2023-04-01T05:42:20;9.10;99.90
11812;DHT22;5963;50.184;9.162;2023-04-01T05:44:50;9.10;99.90
11812;DHT22;5963;50.184;9.162;2023-04-01T05:47:20;9.20;99.90
11812;DHT22;5963;50.184;9.162;2023-04-01T05:49:50;9.20;99.90
11812;DHT22;5963;50.184;9.162;2023-04-01T05:52:21;9.20;99.90
11812;DHT22;5963;50.184;9.162;2023-04-01T05:54:51;9.20;99.90
11812;DHT22;5963;50.184;9.162;2023-04-01T05:57:21;9.20;99.90
11812;DHT22;5963;50.184;9.162;2023-04-01T05:59:50;9.20;99.90
11812;DHT22;5963;50.184;9.162;2023-04-01T06:02:20;9.20;99.90
11812;DHT22;5963;50.184;9.162;2023-04-01T06:04:51;9.20;99.90
11812;DHT22;5963;50.184;9.162;2023-04-01T06:07:24;9.20;99.90
11812;DHT22;5963;50.184;9.162;2023-04-01T06:09:57;9.10;99.90
11812;DHT22;5963;50.184;9.162;2023-04-01T06:12:37;9.10;99.90
11812;DHT22;5963;50.184;9.162;2023-04-01T06:15:18;9.00;99.90
11812;DHT22;5963;50.184;9.162;2023-04-01T06:18:00;9.00;99.90
11812;DHT22;5963;50.184;9.162;2023-04-01T06:20:37;9.00;99.90
11812;DHT22;5963;50.184;9.162;2023-04-01T06:23:35;8.90;99.90
11812;DHT22;5963;50.184;9.162;2023-04-01T06:26:15;8.90;99.90
11812;DHT22;5963;50.184;9.162;2023-04-01T06:29:06;8.90;99.90
11812;DHT22;5963;50.184;9.162;2023-04-01T06:31:46;8.90;99.90
11812;DHT22;5963;50.184;9.162;2023-04-01T06:34:47;8.90;99.90
11812;DHT22;5963;50.184;9.162;2023-04-01T06:37:24;8.80;99.90
11812;DHT22;5963;50.184;9.162;2023-04-01T06:40:12;8.90;99.90
11812;DHT22;5963;50.184;9.162;2023-04-01T06:42:58;8.90;99.90
11812;DHT22;5963;50.184;9.162;2023-04-01T06:45:36;8.90;99.90
11812;DHT22;5963;50.184;9.162;2023-04-01T06:48:16;8.90;99.90
11812;DHT22;5963;50.184;9.162;2023-04-01T06:50:54;8.90;99.90
11812;DHT22;5963;50.184;9.162;2023-04-01T06:53:33;8.90;99.90
11812;DHT22;5963;50.184;9.162;2023-04-01T06:56:09;8.90;99.90
11812;DHT22;5963;50.184;9.162;2023-04-01T06:58:42;8.80;99.90
11812;DHT22;5963;50.184;9.162;2023-04-01T07:01:16;8.80;99.90
11812;DHT22;5963;50.184;9.162;2023-04-01T07:03:53;8.80;99.90
11812;DHT22;5963;50.184;9.162;2023-04-01T07:06:28;8.80;99.90
11812;DHT22;5963;50.184;9.162;2023-04-01T07:09:02;8.80;99.90
11812;DHT22;5963;50.184;9.162;2023-04-01T07:11:37;8.80;99.90
11812;DHT22;5963;50.184;9.162;2023-04-01T07:14:13;8.80;99.90
11812;DHT22;5963;50.184;9.162;2023-04-01T07:16:46;8.80;99.90
11812;DHT22;5963;50.184;9.162;2023-04-01T07:19:22;8.80;99.90
11812;DHT22;5963;50.184;9.162;2023-04-01T07:21:54;8.80;99.90
11812;DHT22;5963;50.184;9.162;2023-04-01T07:24:29;8.80;99.90
11812;DHT22;5963;50.184;9.162;2023-04-01T07:27:02;8.80;99.90
11812;DHT22;5963;50.184;9.162;2023-04-01T07:29:32;8.90;99.90
11812;DHT22;5963;50.184;9.162;2023-04-01T07:32:19;8.90;99.90
11812;DHT22;5963;50.184;9.162;2023-04-01T07:35:02;8.90;99.90
11812;DHT22;5963;50.184;9.162;2023-04-01T07:37:42;8.90;99.90
11812;DHT22;5963;50.184;9.162;2023-04-01T07:40:22;9.00;99.90
11812;DHT22;5963;50.184;9.162;2023-04-01T07:43:09;9.00;99.90
11812;DHT22;5963;50.184;9.162;2023-04-01T07:45:46;9.00;99.90
11812;DHT22;5963;50.184;9.162;2023-04-01T07:48:22;9.00;99.90
11812;DHT22;5963;50.184;9.162;2023-04-01T07:50:59;8.90;99.90
11812;DHT22;5963;50.184;9.162;2023-04-01T07:53:38;8.90;99.90
11812;DHT22;5963;50.184;9.162;2023-04-01T07:56:14;8.90;99.90
11812;DHT22;5963;50.184;9.162;2023-04-01T07:58:52;8.90;99.90
11812;DHT22;5963;50.184;9.162;2023-04-01T08:01:25;8.90;99.90
11812;DHT22;5963;50.184;9.162;2023-04-01T08:06:56;8.90;99.90
11812;DHT22;5963;50.184;9.162;2023-04-01T08:09:33;8.90;99.90
11812;DHT22;5963;50.184;9.162;2023-04-01T08:12:11;9.00;99.90
11812;DHT22;5963;50.184;9.162;2023-04-01T08:14:52;9.00;99.90
11812;DHT22;5963;50.184;9.162;2023-04-01T08:17:27;9.00;99.90
11812;DHT22;5963;50.184;9.162;2023-04-01T08:20:14;9.10;99.90
11812;DHT22;5963;50.184;9.162;2023-04-01T08:22:51;9.10;99.90
11812;DHT22;5963;50.184;9.162;2023-04-01T08:25:27;9.20;99.90
11812;DHT22;5963;50.184;9.162;2023-04-01T08:27:59;9.20;99.90
11812;DHT22;5963;50.184;9.162;2023-04-01T08:30:38;9.20;99.90
11812;DHT22;5963;50.184;9.162;2023-04-01T08:33:12;9.20;99.90
11812;DHT22;5963;50.184;9.162;2023-04-01T08:35:46;9.10;99.90
11812;DHT22;5963;50.184;9.162;2023-04-01T08:38:21;9.10;99.90
11812;DHT22;5963;50.184;9.162;2023-04-01T08:41:07;9.10;99.90
11812;DHT22;5963;50.184;9.162;2023-04-01T08:43:59;9.10;99.90
11812;DHT22;5963;50.184;9.162;2023-04-01T08:46:56;9.10;99.90
11812;DHT22;5963;50.184;9.162;2023-04-01T08:49:41;9.10;99.90
11812;DHT22;5963;50.184;9.162;2023-04-01T08:52:22;9.10;99.90
11812;DHT22;5963;50.184;9.162;2023-04-01T08:55:04;9.20;99.90
11812;DHT22;5963;50.184;9.162;2023-04-01T08:57:45;9.10;99.90
11812;DHT22;5963;50.184;9.162;2023-04-01T09:00:25;9.20;99.90
11812;DHT22;5963;50.184;9.162;2023-04-01T09:03:30;9.20;99.90
11812;DHT22;5963;50.184;9.162;2023-04-01T09:06:32;9.20;99.90
11812;DHT22;5963;50.184;9.162;2023-04-01T09:09:33;9.10;99.90
11812;DHT22;5963;50.184;9.162;2023-04-01T09:12:31;9.10;99.90
11812;DHT22;5963;50.184;9.162;2023-04-01T09:15:36;9.10;99.90
11812;DHT22;5963;50.184;9.162;2023-04-01T09:18:30;9.10;99.90
11812;DHT22;5963;50.184;9.162;2023-04-01T09:21:24;9.20;99.90
11812;DHT22;5963;50.184;9.162;2023-04-01T09:27:08;9.20;99.90
11812;DHT22;5963;50.184;9.162;2023-04-01T09:33:21;9.10;99.90
11812;DHT22;5963;50.184;9.162;2023-04-01T09:36:07;9.10;99.90
11812;DHT22;5963;50.184;9.162;2023-04-01T09:38:48;9.10;99.90
11812;DHT22;5963;50.184;9.162;2023-04-01T09:41:28;9.20;99.90
11812;DHT22;5963;50.184;9.162;2023-04-01T09:44:01;9.20;99.90
11812;DHT22;5963;50.184;9.162;2023-04-01T09:46:53;9.20;99.90
11812;DHT22;5963;50.184;9.162;2023-04-01T09:49:54;9.20;99.90
11812;DHT22;5963;50.184;9.162;2023-04-01T09:52:32;9.20;99.90
11812;DHT22;5963;50.184;9.162;2023-04-01T09:55:34;9.20;99.90
11812;DHT22;5963;50.184;9.162;2023-04-01T09:58:27;9.20;99.90
11812;DHT22;5963;50.184;9.162;2023-04-01T10:01:33;9.30;99.90
11812;DHT22;5963;50.184;9.162;2023-04-01T10:07:42;9.40;99.90
11812;DHT22;5963;50.184;9.162;2023-04-01T10:10:47;9.40;99.90
11812;DHT22;5963;50.184;9.162;2023-04-01T10:20:15;9.50;99.90
11812;DHT22;5963;50.184;9.162;2023-04-01T10:23:07;9.50;99.90
11812;DHT22;5963;50.184;9.162;2023-04-01T10:26:09;9.70;99.90
11812;DHT22;5963;50.184;9.162;2023-04-01T10:29:08;9.60;99.90
11812;DHT22;5963;50.184;9.162;2023-04-01T10:32:21;9.60;99.90
11812;DHT22;5963;50.184;9.162;2023-04-01T10:35:36;9.70;99.90
11812;DHT22;5963;50.184;9.162;2023-04-01T10:41:32;9.60;99.90
11812;DHT22;5963;50.184;9.162;2023-04-01T10:44:37;9.60;99.90
11812;DHT22;5963;50.184;9.162;2023-04-01T10:47:39;9.70;99.90
11812;DHT22;5963;50.184;9.162;2023-04-01T10:50:47;9.70;99.90
11812;DHT22;5963;50.184;9.162;2023-04-01T10:53:37;9.70;99.90
11812;DHT22;5963;50.184;9.162;2023-04-01T10:56:33;9.80;99.90
11812;DHT22;5963;50.184;9.162;2023-04-01T11:05:49;9.60;99.90
11812;DHT22;5963;50.184;9.162;2023-04-01T11:14:54;9.60;99.90
11812;DHT22;5963;50.184;9.162;2023-04-01T11:17:55;9.60;99.90
11812;DHT22;5963;50.184;9.162;2023-04-01T11:20:47;9.60;99.90
11812;DHT22;5963;50.184;9.162;2023-04-01T11:23:30;9.60;99.90
11812;DHT22;5963;50.184;9.162;2023-04-01T11:26:10;9.70;99.90
11812;DHT22;5963;50.184;9.162;2023-04-01T11:29:00;9.70;99.90
11812;DHT22;5963;50.184;9.162;2023-04-01T11:31:46;9.80;99.90
11812;DHT22;5963;50.184;9.162;2023-04-01T11:34:31;9.90;99.90
11812;DHT22;5963;50.184;9.162;2023-04-01T11:37:08;9.90;99.90
11812;DHT22;5963;50.184;9.162;2023-04-01T11:39:50;9.90;99.90
11812;DHT22;5963;50.184;9.162;2023-04-01T11:42:30;9.90;99.90
11812;DHT22;5963;50.184;9.162;2023-04-01T11:45:12;9.90;99.90
11812;DHT22;5963;50.184;9.162;2023-04-01T11:47:55;9.80;99.90
11812;DHT22;5963;50.184;9.162;2023-04-01T11:50:36;9.90;99.90
11812;DHT22;5963;50.184;9.162;2023-04-01T11:53:27;9.90;99.90
11812;DHT22;5963;50.184;9.162;2023-04-01T11:56:32;9.90;99.90
11812;DHT22;5963;50.184;9.162;2023-04-01T11:59:31;9.90;99.90
11812;DHT22;5963;50.184;9.162;2023-04-01T12:02:11;10.10;99.90
11812;DHT22;5963;50.184;9.162;2023-04-01T12:04:54;10.10;99.90
11812;DHT22;5963;50.184;9.162;2023-04-01T12:07:38;10.10;99.90
11812;DHT22;5963;50.184;9.162;2023-04-01T12:10:19;10.10;99.90
11812;DHT22;5963;50.184;9.162;2023-04-01T12:12:54;10.20;99.90
11812;DHT22;5963;50.184;9.162;2023-04-01T12:15:48;10.20;99.90
11812;DHT22;5963;50.184;9.162;2023-04-01T12:18:28;10.20;99.90
11812;DHT22;5963;50.184;9.162;2023-04-01T12:21:09;10.20;99.90
11812;DHT22;5963;50.184;9.162;2023-04-01T12:23:56;10.10;99.90
11812;DHT22;5963;50.184;9.162;2023-04-01T12:26:51;10.20;99.90
11812;DHT22;5963;50.184;9.162;2023-04-01T12:29:48;10.10;99.90
11812;DHT22;5963;50.184;9.162;2023-04-01T12:32:29;10.10;99.90
11812;DHT22;5963;50.184;9.162;2023-04-01T12:35:13;10.20;99.90
11812;DHT22;5963;50.184;9.162;2023-04-01T12:37:54;10.30;99.90
11812;DHT22;5963;50.184;9.162;2023-04-01T12:40:45;10.20;99.90
11812;DHT22;5963;50.184;9.162;2023-04-01T12:43:35;10.20;99.90
11812;DHT22;5963;50.184;9.162;2023-04-01T12:46:15;10.20;99.90
11812;DHT22;5963;50.184;9.162;2023-04-01T12:49:27;10.20;99.90
11812;DHT22;5963;50.184;9.162;2023-04-01T12:52:05;10.20;99.90
11812;DHT22;5963;50.184;9.162;2023-04-01T12:55:02;10.20;99.90
11812;DHT22;5963;50.184;9.162;2023-04-01T12:58:03;10.10;99.90
11812;DHT22;5963;50.184;9.162;2023-04-01T13:00:46;10.10;99.90
11812;DHT22;5963;50.184;9.162;2023-04-01T13:03:31;10.10;99.90
11812;DHT22;5963;50.184;9.162;2023-04-01T13:06:30;10.00;99.90
11812;DHT22;5963;50.184;9.162;2023-04-01T13:09:08;10.00;99.90
11812;DHT22;5963;50.184;9.162;2023-04-01T13:11:55;10.00;99.90
11812;DHT22;5963;50.184;9.162;2023-04-01T13:15:00;9.90;99.90
11812;DHT22;5963;50.184;9.162;2023-04-01T13:17:44;9.90;99.90
11812;DHT22;5963;50.184;9.162;2023-04-01T13:20:21;10.00;99.90
11812;DHT22;5963;50.184;9.162;2023-04-01T13:23:01;10.00;99.90
11812;DHT22;5963;50.184;9.162;2023-04-01T13:25:38;10.10;99.90
11812;DHT22;5963;50.184;9.162;2023-04-01T13:28:14;10.20;99.90
11812;DHT22;5963;50.184;9.162;2023-04-01T13:30:53;10.20;99.90
11812;DHT22;5963;50.184;9.162;2023-04-01T13:33:34;10.10;99.90
11812;DHT22;5963;50.184;9.162;2023-04-01T13:36:14;10.00;99.90
11812;DHT22;5963;50.184;9.162;2023-04-01T13:39:08;10.00;99.90
11812;DHT22;5963;50.184;9.162;2023-04-01T13:41:58;10.00;99.90
11812;DHT22;5963;50.184;9.162;2023-04-01T13:44:36;10.00;99.90
11812;DHT22;5963;50.184;9.162;2023-04-01T13:50:24;10.00;99.90
11812;DHT22;5963;50.184;9.162;2023-04-01T13:53:36;10.10;99.90
11812;DHT22;5963;50.184;9.162;2023-04-01T13:56:19;10.20;99.90
11812;DHT22;5963;50.184;9.162;2023-04-01T14:01:54;10.30;99.90
11812;DHT22;5963;50.184;9.162;2023-04-01T14:04:42;10.40;99.90
11812;DHT22;5963;50.184;9.162;2023-04-01T14:07:25;10.40;99.90
11812;DHT22;5963;50.184;9.162;2023-04-01T14:10:07;10.40;99.90
11812;DHT22;5963;50.184;9.162;2023-04-01T14:12:47;10.50;99.90
11812;DHT22;5963;50.184;9.162;2023-04-01T14:15:37;10.50;99.90
11812;DHT22;5963;50.184;9.162;2023-04-01T14:18:24;10.70;99.90
11812;DHT22;5963;50.184;9.162;2023-04-01T14:21:05;10.70;99.90
11812;DHT22;5963;50.184;9.162;2023-04-01T14:23:53;10.80;99.90
11812;DHT22;5963;50.184;9.162;2023-04-01T14:26:35;10.70;99.90
11812;DHT22;5963;50.184;9.162;2023-04-01T14:29:19;10.80;99.90
11812;DHT22;5963;50.184;9.162;2023-04-01T14:31:59;10.70;99.90
11812;DHT22;5963;50.184;9.162;2023-04-01T14:34:42;10.60;99.90
11812;DHT22;5963;50.184;9.162;2023-04-01T14:37:23;10.50;99.90
11812;DHT22;5963;50.184;9.162;2023-04-01T14:40:19;10.50;99.90
11812;DHT22;5963;50.184;9.162;2023-04-01T14:43:01;10.50;99.90
11812;DHT22;5963;50.184;9.162;2023-04-01T14:45:59;10.60;99.90
11812;DHT22;5963;50.184;9.162;2023-04-01T14:48:35;10.60;99.90
11812;DHT22;5963;50.184;9.162;2023-04-01T14:51:16;10.60;99.90
11812;DHT22;5963;50.184;9.162;2023-04-01T14:53:55;10.60;99.90
11812;DHT22;5963;50.184;9.162;2023-04-01T14:56:39;10.60;99.90
11812;DHT22;5963;50.184;9.162;2023-04-01T14:59:10;10.70;99.90
11812;DHT22;5963;50.184;9.162;2023-04-01T15:01:47;10.50;99.90
11812;DHT22;5963;50.184;9.162;2023-04-01T15:04:44;10.50;99.90
11812;DHT22;5963;50.184;9.162;2023-04-01T15:07:36;10.50;99.90
11812;DHT22;5963;50.184;9.162;2023-04-01T15:10:16;10.50;99.90
11812;DHT22;5963;50.184;9.162;2023-04-01T15:12:57;10.50;99.90
11812;DHT22;5963;50.184;9.162;2023-04-01T15:15:43;10.50;99.90
11812;DHT22;5963;50.184;9.162;2023-04-01T15:18:21;10.50;99.90
11812;DHT22;5963;50.184;9.162;2023-04-01T15:21:05;10.50;99.90
11812;DHT22;5963;50.184;9.162;2023-04-01T15:23:47;10.60;99.90
11812;DHT22;5963;50.184;9.162;2023-04-01T15:29:23;10.50;99.90
11812;DHT22;5963;50.184;9.162;2023-04-01T15:31:57;10.50;99.90
11812;DHT22;5963;50.184;9.162;2023-04-01T15:34:33;10.50;99.90
11812;DHT22;5963;50.184;9.162;2023-04-01T15:37:10;10.40;99.90
11812;DHT22;5963;50.184;9.162;2023-04-01T15:39:53;10.40;99.90
11812;DHT22;5963;50.184;9.162;2023-04-01T15:42:46;10.40;99.90
11812;DHT22;5963;50.184;9.162;2023-04-01T15:45:26;10.20;99.90
11812;DHT22;5963;50.184;9.162;2023-04-01T15:48:06;10.20;99.90
11812;DHT22;5963;50.184;9.162;2023-04-01T15:50:51;10.10;99.90
11812;DHT22;5963;50.184;9.162;2023-04-01T15:56:45;10.10;99.90
11812;DHT22;5963;50.184;9.162;2023-04-01T15:59:28;10.00;99.90
11812;DHT22;5963;50.184;9.162;2023-04-01T16:02:07;10.00;99.90
11812;DHT22;5963;50.184;9.162;2023-04-01T16:04:46;9.90;99.90
11812;DHT22;5963;50.184;9.162;2023-04-01T16:07:26;9.90;99.90
11812;DHT22;5963;50.184;9.162;2023-04-01T16:10:17;9.90;99.90
11812;DHT22;5963;50.184;9.162;2023-04-01T16:13:03;9.90;99.90
11812;DHT22;5963;50.184;9.162;2023-04-01T16:15:47;9.90;99.90
11812;DHT22;5963;50.184;9.162;2023-04-01T16:18:38;9.90;99.90
11812;DHT22;5963;50.184;9.162;2023-04-01T16:21:14;9.90;99.90
11812;DHT22;5963;50.184;9.162;2023-04-01T16:23:53;9.90;99.90
11812;DHT22;5963;50.184;9.162;2023-04-01T16:26:28;9.90;99.90
11812;DHT22;5963;50.184;9.162;2023-04-01T16:29:07;9.90;99.90
11812;DHT22;5963;50.184;9.162;2023-04-01T16:31:46;9.80;99.90
11812;DHT22;5963;50.184;9.162;2023-04-01T16:34:24;9.90;99.90
11812;DHT22;5963;50.184;9.162;2023-04-01T16:37:03;10.00;99.90
11812;DHT22;5963;50.184;9.162;2023-04-01T16:39:41;10.00;99.90
11812;DHT22;5963;50.184;9.162;2023-04-01T16:42:31;10.00;99.90
11812;DHT22;5963;50.184;9.162;2023-04-01T16:45:08;10.00;99.90
11812;DHT22;5963;50.184;9.162;2023-04-01T16:47:49;10.10;99.90
11812;DHT22;5963;50.184;9.162;2023-04-01T16:50:23;10.10;99.90
11812;DHT22;5963;50.184;9.162;2023-04-01T16:52:59;10.10;99.90
11812;DHT22;5963;50.184;9.162;2023-04-01T16:55:41;10.00;99.90
11812;DHT22;5963;50.184;9.162;2023-04-01T16:58:18;10.00;99.90
11812;DHT22;5963;50.184;9.162;2023-04-01T17:00:53;10.00;99.90
11812;DHT22;5963;50.184;9.162;2023-04-01T17:03:29;10.00;99.90
11812;DHT22;5963;50.184;9.162;2023-04-01T17:06:12;9.90;99.90
11812;DHT22;5963;50.184;9.162;2023-04-01T17:08:55;9.90;99.90
11812;DHT22;5963;50.184;9.162;2023-04-01T17:11:31;9.90;99.90
11812;DHT22;5963;50.184;9.162;2023-04-01T17:14:08;9.80;99.90
11812;DHT22;5963;50.184;9.162;2023-04-01T17:16:51;9.80;99.90
11812;DHT22;5963;50.184;9.162;2023-04-01T17:19:30;9.80;99.90
11812;DHT22;5963;50.184;9.162;2023-04-01T17:22:07;9.80;99.90
11812;DHT22;5963;50.184;9.162;2023-04-01T17:24:51;9.80;99.90
11812;DHT22;5963;50.184;9.162;2023-04-01T17:27:30;9.80;99.90
11812;DHT22;5963;50.184;9.162;2023-04-01T17:30:23;9.80;99.90
11812;DHT22;5963;50.184;9.162;2023-04-01T17:35:54;9.90;99.90
11812;DHT22;5963;50.184;9.162;2023-04-01T17:38:39;9.90;99.90
11812;DHT22;5963;50.184;9.162;2023-04-01T17:41:16;10.00;99.90
11812;DHT22;5963;50.184;9.162;2023-04-01T17:43:55;9.70;99.90
11812;DHT22;5963;50.184;9.162;2023-04-01T17:46:33;9.50;99.90
11812;DHT22;5963;50.184;9.162;2023-04-01T17:49:19;9.50;99.90
11812;DHT22;5963;50.184;9.162;2023-04-01T17:51:59;9.40;99.90
11812;DHT22;5963;50.184;9.162;2023-04-01T17:54:38;9.10;99.90
11812;DHT22;5963;50.184;9.162;2023-04-01T17:57:27;9.00;99.90
11812;DHT22;5963;50.184;9.162;2023-04-01T18:00:06;8.90;99.90
11812;DHT22;5963;50.184;9.162;2023-04-01T18:02:50;8.70;99.90
11812;DHT22;5963;50.184;9.162;2023-04-01T18:05:29;8.40;99.90
11812;DHT22;5963;50.184;9.162;2023-04-01T18:08:17;8.20;99.90
11812;DHT22;5963;50.184;9.162;2023-04-01T18:10:55;8.10;99.90